Time;durP1;ratioP1;P1;durP2;ratioP2;P2;SDS_P1;SDS_P2;PMS_P1;PMS_P2;Temp;Humidity;BMP_temperature;BMP_pressure;BME280_temperature;BME280_humidity;BME280_pressure;Samples;Min_cycle;Max_cycle;Signal;HPM_P1;HPM_P2
2022/08/12 00:44:02;;;;;;;2.12;0.80;;;28.30;49.70;;;;;;10867932;32;20054;-71
2022/08/12 00:50:05;;;;;;;1.55;0.93;;;28.30;49.60;;;;;;10865714;32;20023;-71
2022/08/12 00:56:10;;;;;;;2.25;1.17;;;28.30;49.80;;;;;;10867433;32;20431;-71
2022/08/12 01:02:21;;;;;;;2.47;1.12;;;28.30;49.60;;;;;;10867269;32;20012;-70
2022/08/12 01:14:52;;;;;;;;;;;28.20;50.30;;;;;;10855492;32;20054;-69
2022/08/12 01:21:18;;;;;;;1.12;1.02;;;28.00;50.90;;;;;;10866924;32;19927;-70
2022/08/12 01:27:22;;;;;;;1.83;0.88;;;28.00;50.90;;;;;;10866880;32;20028;-70
2022/08/12 01:33:27;;;;;;;1.87;0.60;;;27.90;51.10;;;;;;10429847;32;11948046;-68
2022/08/12 01:39:32;;;;;;;4.05;0.80;;;27.80;51.70;;;;;;10789175;33;20056;-69
2022/08/12 01:45:50;;;;;;;1.10;0.75;;;27.70;52.10;;;;;;10786654;32;20032;-69
2022/08/12 01:52:03;;;;;;;1.60;1.08;;;27.70;52.70;;;;;;10785534;33;20032;-69
2022/08/12 01:58:15;;;;;;;2.10;1.10;;;27.60;52.80;;;;;;10845629;32;20062;-69
2022/08/12 02:11:29;;;;;;;1.48;0.93;;;27.40;53.40;;;;;;10866066;32;20028;-70
2022/08/12 02:18:08;;;;;;;1.23;1.00;;;27.50;53.40;;;;;;10868268;32;20027;-69
2022/08/12 02:24:14;;;;;;;1.62;1.08;;;27.50;53.50;;;;;;10872560;32;20427;-70
2022/08/12 02:30:28;;;;;;;2.97;0.85;;;27.50;53.90;;;;;;10870506;32;20059;-69
2022/08/12 02:36:31;;;;;;;1.80;1.10;;;27.50;53.70;;;;;;10869039;32;20054;-69
2022/08/12 02:42:34;;;;;;;0.90;0.75;;;27.30;54.10;;;;;;10870512;32;20050;-69
2022/08/12 02:48:59;;;;;;;0.80;0.70;;;27.20;54.30;;;;;;10871030;32;20024;-69
2022/08/12 02:55:30;;;;;;;1.60;0.93;;;27.30;54.20;;;;;;10867897;32;20020;-69
2022/08/12 03:01:36;;;;;;;1.35;0.68;;;27.20;54.00;;;;;;10867338;32;20070;-69
2022/08/12 03:07:45;;;;;;;2.62;1.23;;;27.10;54.30;;;;;;10871300;32;20011;-69
2022/08/12 03:13:54;;;;;;;1.37;0.68;;;27.20;54.00;;;;;;10866785;32;20028;-69
2022/08/12 03:19:56;;;;;;;1.23;1.00;;;27.10;54.20;;;;;;10867782;32;20047;-69
2022/08/12 03:26:00;;;;;;;1.73;0.98;;;27.00;54.70;;;;;;10870506;32;20419;-69
2022/08/12 03:32:03;;;;;;;0.88;0.68;;;26.90;54.80;;;;;;10870213;32;20125;-70
2022/08/12 03:38:07;;;;;;;14.63;1.27;;;27.00;54.60;;;;;;10869270;32;20028;-69
2022/08/12 04:09:45;;;;;;;1.87;0.75;;;26.90;54.20;;;;;;10867843;32;20393;-70
2022/08/12 04:15:47;;;;;;;1.80;1.15;;;26.90;53.70;;;;;;10868868;32;20070;-70
2022/08/12 04:21:51;;;;;;;1.90;0.98;;;27.00;53.60;;;;;;10864445;32;20019;-69
2022/08/12 04:27:53;;;;;;;1.48;0.85;;;27.00;53.40;;;;;;10874631;27;20054;-70
2022/08/12 04:33:57;;;;;;;2.47;0.93;;;26.90;53.50;;;;;;10905308;32;20031;-70
2022/08/12 04:40:12;;;;;;;1.02;0.50;;;26.90;53.50;;;;;;10891731;32;20023;-70
2022/08/12 04:46:14;;;;;;;4.70;1.75;;;26.90;53.40;;;;;;10905074;32;20066;-70
2022/08/12 04:52:17;;;;;;;1.33;0.85;;;26.90;53.40;;;;;;10904960;32;20031;-69
2022/08/12 04:58:20;;;;;;;4.25;1.37;;;26.90;53.40;;;;;;10892168;32;20050;-70
2022/08/12 05:04:24;;;;;;;0.70;0.60;;;26.90;53.60;;;;;;10903259;32;20045;-70
2022/08/12 05:10:26;;;;;;;0.73;0.60;;;26.90;53.70;;;;;;10904489;32;20109;-70
2022/08/12 05:16:29;;;;;;;1.48;0.93;;;26.80;54.20;;;;;;10904404;32;20031;-69
2022/08/12 05:22:31;;;;;;;0.82;0.57;;;26.80;54.20;;;;;;10904236;32;20470;-70
2022/08/12 05:28:34;;;;;;;1.45;0.70;;;26.70;54.40;;;;;;10904016;32;20039;-70
2022/08/12 05:34:35;;;;;;;0.85;0.70;;;26.70;54.70;;;;;;10904067;32;20020;-69
2022/08/12 05:40:37;;;;;;;2.28;1.00;;;26.60;55.00;;;;;;10904025;32;20066;-69
2022/08/12 05:46:40;;;;;;;1.12;1.02;;;26.50;55.40;;;;;;10904113;32;20395;-69
2022/08/12 05:52:42;;;;;;;2.47;1.42;;;26.40;55.80;;;;;;10907817;32;20027;-71
2022/08/12 05:58:46;;;;;;;2.83;1.08;;;26.30;56.20;;;;;;10908986;32;20062;-69
2022/08/12 06:05:05;;;;;;;2.00;1.08;;;26.30;56.40;;;;;;10910928;32;20035;-70
2022/08/12 06:11:07;;;;;;;2.42;1.33;;;26.30;56.20;;;;;;10910248;32;20050;-69
2022/08/12 06:17:09;;;;;;;0.93;0.88;;;26.30;56.00;;;;;;10897010;32;20019;-70
2022/08/12 06:23:27;;;;;;;2.78;1.37;;;26.30;56.00;;;;;;10910294;32;20449;-69
2022/08/12 06:29:29;;;;;;;4.03;1.50;;;26.30;56.10;;;;;;10909630;32;20058;-69
2022/08/12 06:35:31;;;;;;;1.17;0.93;;;26.20;56.10;;;;;;10909716;32;20124;-68
2022/08/12 06:47:58;;;;;;;2.97;1.10;;;26.30;55.80;;;;;;10895938;32;20031;-69
2022/08/12 06:54:00;;;;;;;1.15;0.70;;;26.30;56.00;;;;;;10896247;32;20019;-71
2022/08/12 07:00:25;;;;;;;1.35;0.90;;;26.30;55.90;;;;;;10904716;32;20028;-69
2022/08/12 07:06:28;;;;;;;2.00;1.30;;;26.40;55.80;;;;;;10908663;32;20473;-70
2022/08/12 07:12:30;;;;;;;1.40;0.95;;;26.40;55.60;;;;;;10906411;32;20053;-70
2022/08/12 07:18:52;;;;;;;1.90;1.08;;;26.50;55.50;;;;;;10905059;32;20336;-69
2022/08/12 07:31:14;;;;;;;3.03;1.00;;;26.70;55.10;;;;;;10869614;32;20020;-69
2022/08/12 07:37:16;;;;;;;1.60;1.12;;;26.80;54.90;;;;;;10870042;32;20042;-69
2022/08/12 07:43:18;;;;;;;4.25;1.35;;;26.80;54.80;;;;;;10870187;32;20048;-69
2022/08/12 07:49:23;;;;;;;1.05;0.93;;;26.70;55.00;;;;;;10869774;32;20035;-70
2022/08/12 07:55:35;;;;;;;2.50;1.35;;;26.70;55.00;;;;;;10865908;32;20046;-70
2022/08/12 08:01:38;;;;;;;3.28;1.27;;;26.90;54.60;;;;;;10869552;32;20019;-70
2022/08/12 08:07:41;;;;;;;2.15;1.70;;;27.00;54.10;;;;;;10869251;32;20046;-69
2022/08/12 08:13:47;;;;;;;1.95;1.20;;;27.40;53.10;;;;;;10868465;32;20024;-70
2022/08/12 08:19:51;;;;;;;1.80;1.10;;;27.60;52.50;;;;;;10866920;32;20028;-69
2022/08/12 08:25:54;;;;;;;1.30;0.80;;;27.90;52.20;;;;;;10865756;32;20035;-69
2022/08/12 08:32:00;;;;;;;0.62;0.62;;;28.10;51.30;;;;;;10865350;32;20404;-67
2022/08/12 08:38:16;;;;;;;2.12;1.08;;;28.20;51.00;;;;;;10865065;32;20054;-68
2022/08/12 08:44:19;;;;;;;2.60;1.12;;;28.30;50.80;;;;;;10863762;32;20028;-70
2022/08/12 08:50:21;;;;;;;2.08;0.98;;;28.20;50.60;;;;;;10862695;32;20426;-70
2022/08/12 08:56:24;;;;;;;1.20;0.80;;;28.20;50.50;;;;;;10863089;32;20046;-70
2022/08/12 09:02:26;;;;;;;3.67;1.58;;;28.30;49.90;;;;;;10867489;32;20078;-70
2022/08/12 09:08:28;;;;;;;1.83;1.20;;;28.50;49.50;;;;;;10867315;32;20097;-71
2022/08/12 09:14:30;;;;;;;1.70;0.77;;;28.60;48.90;;;;;;10865373;32;20031;-69
2022/08/12 09:20:34;;;;;;;0.73;0.60;;;28.80;48.50;;;;;;10862899;32;20023;-70
2022/08/12 09:26:37;;;;;;;2.15;1.08;;;28.90;48.00;;;;;;10866864;32;20321;-71
2022/08/12 09:32:41;;;;;;;1.30;0.93;;;28.90;47.90;;;;;;10866467;32;20054;-70
2022/08/12 09:38:44;;;;;;;3.30;1.30;;;29.10;47.30;;;;;;10883668;32;20023;-70
2022/08/12 09:51:07;;;;;;;1.85;0.98;;;29.30;45.80;;;;;;10903951;32;20031;-70
2022/08/12 09:57:10;;;;;;;3.08;1.70;;;29.30;45.60;;;;;;10903842;32;20019;-69
2022/08/12 10:03:15;;;;;;;1.02;0.50;;;29.40;45.70;;;;;;10903658;32;20051;-69
2022/08/12 10:09:17;;;;;;;1.50;0.82;;;29.80;45.00;;;;;;10899406;32;20438;-70
2022/08/12 10:15:19;;;;;;;9.15;1.27;;;29.90;44.50;;;;;;10903519;32;20015;-70
2022/08/12 10:21:30;;;;;;;1.05;0.47;;;30.10;43.90;;;;;;10901976;32;20038;-71
2022/08/12 10:33:53;;;;;;;1.70;1.25;;;30.40;43.00;;;;;;10903032;32;20020;-70
2022/08/12 10:39:55;;;;;;;0.88;0.77;;;30.60;42.50;;;;;;10907753;32;20027;-70
2022/08/12 10:45:58;;;;;;;3.58;1.00;;;30.80;41.60;;;;;;10909675;32;20062;-71
2022/08/12 10:52:01;;;;;;;10.45;1.10;;;30.90;41.10;;;;;;10909384;32;20339;-71
2022/08/12 10:58:03;;;;;;;1.02;0.73;;;31.10;40.50;;;;;;10909194;32;20028;-71
2022/08/12 11:04:06;;;;;;;0.73;0.65;;;31.00;40.40;;;;;;10908001;32;20053;-70
2022/08/12 11:10:08;;;;;;;5.60;0.80;;;30.80;39.70;;;;;;10904500;32;20070;-70
2022/08/12 11:16:12;;;;;;;2.35;0.77;;;30.60;40.60;;;;;;10907748;32;20023;-71
2022/08/12 11:22:14;;;;;;;1.60;1.08;;;30.80;40.60;;;;;;10908195;32;20053;-71
2022/08/12 11:28:17;;;;;;;3.50;0.82;;;30.80;40.60;;;;;;10903726;32;20031;-73
2022/08/12 11:34:20;;;;;;;6.43;1.50;;;30.90;40.10;;;;;;10906884;32;20027;-71
2022/08/12 11:40:22;;;;;;;1.67;1.10;;;30.90;39.90;;;;;;10907622;32;20323;-73
2022/08/12 11:46:24;;;;;;;3.47;1.17;;;30.90;40.20;;;;;;10906967;32;20027;-72
2022/08/12 11:52:27;;;;;;;172.77;17.48;;;30.80;40.20;;;;;;10906398;32;20027;-72
2022/08/12 11:58:29;;;;;;;6.32;2.12;;;30.80;40.60;;;;;;10904650;32;20027;-73
2022/08/12 12:04:31;;;;;;;283.92;48.30;;;31.00;39.60;;;;;;10906584;32;20331;-72
2022/08/12 12:10:33;;;;;;;34.08;7.12;;;30.90;40.00;;;;;;10905984;32;20023;-71
2022/08/12 12:16:37;;;;;;;11.77;3.03;;;31.30;39.70;;;;;;10905733;32;20438;-72
2022/08/12 12:22:40;;;;;;;2.78;1.15;;;31.80;39.00;;;;;;10905725;32;20047;-72
2022/08/12 12:28:43;;;;;;;41.28;14.73;;;32.00;38.60;;;;;;10910240;27;20032;-72
2022/08/12 12:34:45;;;;;;;17.62;5.25;;;32.10;39.20;;;;;;10891656;32;20381;-72
2022/08/12 12:40:48;;;;;;;5.55;2.03;;;31.80;40.00;;;;;;10904630;32;20027;-73
2022/08/12 12:46:51;;;;;;;6.10;1.95;;;31.50;40.00;;;;;;10904852;32;20384;-71
2022/08/12 12:52:53;;;;;;;3.22;1.90;;;31.50;39.80;;;;;;10904483;32;20069;-73
2022/08/12 12:58:55;;;;;;;2.55;1.12;;;31.50;39.70;;;;;;10904411;32;20481;-71
2022/08/12 13:04:58;;;;;;;4.30;1.42;;;31.30;39.90;;;;;;10891239;32;20028;-73
2022/08/12 13:11:02;;;;;;;12.02;2.62;;;31.20;40.00;;;;;;10904226;32;20023;-71
2022/08/12 13:17:05;;;;;;;4.87;1.52;;;30.90;40.30;;;;;;10903445;32;20041;-72
2022/08/12 13:23:07;;;;;;;34.22;7.22;;;30.70;40.80;;;;;;10903432;32;20024;-72
2022/08/12 13:29:11;;;;;;;9.20;2.47;;;30.40;41.30;;;;;;10898987;32;20150;-74
2022/08/12 13:35:15;;;;;;;2.08;1.00;;;30.30;41.70;;;;;;10903316;32;20027;-74
2022/08/12 13:41:33;;;;;;;3.22;1.37;;;30.10;41.70;;;;;;10898284;32;20057;-73
2022/08/12 13:47:59;;;;;;;1.42;0.77;;;30.00;41.90;;;;;;10867254;32;20046;-72
2022/08/12 13:54:03;;;;;;;7.30;1.10;;;30.00;41.90;;;;;;10864689;32;20031;-73
2022/08/12 14:00:07;;;;;;;10.20;2.37;;;30.10;42.00;;;;;;10865526;32;20019;-70
2022/08/12 14:06:14;;;;;;;3.05;1.62;;;30.10;42.00;;;;;;10863686;32;20008;-70
2022/08/12 14:12:19;;;;;;;2.75;1.40;;;30.20;41.40;;;;;;10866148;32;20035;-70
2022/08/12 14:18:24;;;;;;;10.75;2.22;;;30.30;40.60;;;;;;10869762;32;20050;-70
2022/08/12 14:24:26;;;;;;;6.20;1.23;;;30.40;40.40;;;;;;10901740;32;20031;-71
2022/08/12 14:30:29;;;;;;;200.95;36.35;;;30.40;40.20;;;;;;10878127;32;20027;-70
2022/08/12 14:36:31;;;;;;;65.15;15.48;;;30.40;40.00;;;;;;10872564;32;20046;-70
2022/08/12 14:42:34;;;;;;;16.10;5.50;;;30.60;39.80;;;;;;10858061;32;20016;-70
2022/08/12 14:48:38;;;;;;;8.25;2.25;;;30.50;40.30;;;;;;10892997;32;20062;-70
2022/08/12 14:54:42;;;;;;;2.03;1.30;;;30.40;40.10;;;;;;10896129;32;20035;-70
2022/08/12 15:07:28;;;;;;;2.97;1.60;;;30.50;42.60;;;;;;10907336;32;20057;-70
2022/08/12 15:13:32;;;;;;;1.87;0.85;;;30.40;44.00;;;;;;10907636;32;20028;-71
2022/08/12 15:19:34;;;;;;;5.55;1.33;;;30.30;44.90;;;;;;10877816;32;20024;-70
2022/08/12 15:25:42;;;;;;;3.53;1.17;;;30.30;46.10;;;;;;10873418;32;20028;-70
2022/08/12 15:31:44;;;;;;;1.37;1.10;;;30.20;46.00;;;;;;10893755;32;20023;-71
2022/08/12 15:38:01;;;;;;;0.93;0.75;;;30.30;45.70;;;;;;10898749;32;20058;-71
2022/08/12 15:44:03;;;;;;;4.53;1.12;;;30.10;46.40;;;;;;10876994;32;20357;-70
2022/08/12 15:50:06;;;;;;;4.85;1.60;;;29.60;48.50;;;;;;10889738;32;20073;-71
2022/08/12 15:56:09;;;;;;;3.58;1.48;;;29.10;48.90;;;;;;10876525;32;20067;-73
2022/08/12 16:02:14;;;;;;;3.00;1.30;;;28.80;50.30;;;;;;10869395;32;20054;-74
2022/08/12 16:08:16;;;;;;;3.90;1.33;;;28.70;50.40;;;;;;10869444;32;20337;-72
2022/08/12 16:14:18;;;;;;;1.40;0.90;;;28.50;51.30;;;;;;10855784;32;20027;-71
2022/08/12 16:20:22;;;;;;;10.10;1.05;;;28.40;50.80;;;;;;10868856;32;20024;-72
2022/08/12 16:26:25;;;;;;;2.10;1.00;;;28.30;51.00;;;;;;10868390;32;20054;-70
2022/08/12 16:32:27;;;;;;;2.03;1.20;;;28.20;50.50;;;;;;10867961;32;20317;-71
2022/08/12 16:38:30;;;;;;;1.40;0.93;;;28.10;50.20;;;;;;10865184;32;20031;-70
2022/08/12 16:44:32;;;;;;;1.05;0.65;;;28.10;50.50;;;;;;10867458;32;20023;-70
2022/08/12 16:50:35;;;;;;;1.73;0.77;;;28.20;50.30;;;;;;10866828;32;20400;-70
2022/08/12 16:56:37;;;;;;;2.28;1.15;;;28.20;50.10;;;;;;10899079;32;20031;-71
2022/08/12 17:02:39;;;;;;;1.87;0.90;;;28.10;49.80;;;;;;10903930;32;20062;-70
2022/08/12 17:08:41;;;;;;;1.27;0.75;;;28.00;50.00;;;;;;10900221;32;20015;-70
2022/08/12 17:14:45;;;;;;;0.43;0.43;;;27.90;50.30;;;;;;10903790;32;20057;-70
2022/08/12 17:20:47;;;;;;;4.25;0.88;;;27.90;50.40;;;;;;10891506;32;20020;-69
2022/08/12 17:26:53;;;;;;;2.22;1.17;;;27.90;50.70;;;;;;10904355;32;20039;-70
2022/08/12 17:33:01;;;;;;;1.77;0.70;;;27.90;50.50;;;;;;10904154;32;20027;-69
2022/08/12 17:39:03;;;;;;;;;;;27.80;50.80;;;;;;10904214;32;20027;-71
2022/08/12 17:45:07;;;;;;;0.75;0.50;;;27.80;51.20;;;;;;10905391;32;19930;-70
2022/08/12 17:51:13;;;;;;;5.60;0.62;;;27.80;51.20;;;;;;10911231;32;20074;-73
2022/08/12 17:57:19;;;;;;;0.35;0.32;;;27.70;51.10;;;;;;10911026;32;20048;-70
2022/08/12 18:03:21;;;;;;;0.85;0.57;;;27.80;50.80;;;;;;10911262;32;20395;-69
2022/08/12 18:09:24;;;;;;;1.08;0.70;;;27.80;50.90;;;;;;10911014;32;20125;-70
2022/08/12 18:15:26;;;;;;;1.62;0.75;;;27.80;51.00;;;;;;10910943;32;20050;-69
2022/08/12 18:21:29;;;;;;;2.20;0.60;;;27.70;51.20;;;;;;10910505;32;20057;-69
2022/08/12 18:27:33;;;;;;;0.70;0.40;;;27.60;51.30;;;;;;10897229;32;20310;-69
2022/08/12 18:33:36;;;;;;;0.20;0.20;;;27.60;51.70;;;;;;10910011;32;20031;-69
2022/08/12 18:46:09;;;;;;;0.68;0.55;;;27.70;52.30;;;;;;10909637;32;20347;-70
2022/08/12 18:52:12;;;;;;;1.10;0.77;;;27.80;52.10;;;;;;10909349;32;20073;-69
2022/08/12 18:58:16;;;;;;;1.10;0.60;;;27.70;51.70;;;;;;10908590;32;20297;-69
2022/08/12 19:04:20;;;;;;;1.35;0.70;;;27.70;51.60;;;;;;10908971;32;20023;-69
2022/08/12 19:10:23;;;;;;;2.53;1.00;;;27.60;51.60;;;;;;10908758;32;20438;-69
2022/08/12 19:16:25;;;;;;;2.85;1.15;;;27.40;51.80;;;;;;10908538;32;20286;-69
2022/08/12 19:22:32;;;;;;;3.92;1.10;;;27.30;51.90;;;;;;10908549;32;20045;-70
2022/08/12 19:28:34;;;;;;;1.30;0.90;;;27.30;52.00;;;;;;10903842;32;20016;-69
2022/08/12 19:34:53;;;;;;;4.20;1.10;;;27.20;52.10;;;;;;10907934;32;20031;-69
2022/08/12 19:40:57;;;;;;;1.25;0.73;;;27.20;52.10;;;;;;10908039;32;20019;-69
2022/08/12 19:47:01;;;;;;;1.90;1.10;;;27.10;52.20;;;;;;10907552;32;20066;-69
2022/08/12 19:53:04;;;;;;;1.85;1.17;;;27.00;52.20;;;;;;10907331;32;20019;-69
2022/08/12 20:05:27;;;;;;;3.05;1.23;;;27.00;52.10;;;;;;10896827;32;20020;-69
2022/08/12 20:11:29;;;;;;;1.77;1.00;;;27.00;52.10;;;;;;10869103;32;20055;-69
2022/08/12 20:17:33;;;;;;;1.27;0.98;;;26.80;52.30;;;;;;10869263;32;20019;-70
2022/08/12 20:23:36;;;;;;;1.73;0.88;;;26.80;52.40;;;;;;10855883;32;20042;-70
2022/08/12 20:32:04;;;;;;;0.93;0.70;;;26.60;52.40;;;;;;10625475;32;12400646;-69
2022/08/12 20:38:07;;;;;;;1.33;0.80;;;26.50;52.50;;;;;;11009194;32;20026;-69
2022/08/12 20:44:09;;;;;;;2.10;0.80;;;26.40;52.50;;;;;;11009468;32;20411;-69
2022/08/12 20:50:12;;;;;;;1.42;0.70;;;26.30;52.50;;;;;;10995861;32;20035;-70
2022/08/12 20:56:24;;;;;;;0.80;0.57;;;26.40;52.50;;;;;;11038758;32;20315;-70
2022/08/12 21:02:28;;;;;;;0.57;0.50;;;26.30;52.30;;;;;;11050157;32;20018;-69
2022/08/12 21:08:32;;;;;;;0.75;0.43;;;26.30;52.30;;;;;;11050079;32;20056;-69
2022/08/12 21:14:36;;;;;;;5.05;0.73;;;26.40;52.20;;;;;;11049863;32;20022;-69
2022/08/12 21:20:38;;;;;;;3.58;0.62;;;26.60;51.90;;;;;;11048940;32;20026;-69
2022/08/12 21:26:41;;;;;;;3.42;0.80;;;26.70;51.60;;;;;;11049223;32;20077;-69
2022/08/12 21:32:45;;;;;;;0.40;0.40;;;26.80;51.40;;;;;;11049153;32;20395;-71
2022/08/12 21:38:47;;;;;;;0.40;0.37;;;26.80;51.40;;;;;;11043277;32;20045;-71
2022/08/12 21:44:50;;;;;;;0.98;0.68;;;26.80;51.80;;;;;;11023217;32;20057;-71
2022/08/12 21:50:52;;;;;;;0.60;0.40;;;26.70;52.10;;;;;;11022795;32;20029;-71
2022/08/12 21:56:54;;;;;;;3.03;0.73;;;26.70;52.10;;;;;;11022838;32;20022;-70
2022/08/12 22:09:21;;;;;;;0.30;0.20;;;26.50;52.40;;;;;;11023387;32;20334;-71
2022/08/12 22:15:23;;;;;;;1.37;0.60;;;26.30;52.50;;;;;;11020649;32;20026;-71
2022/08/12 22:21:25;;;;;;;0.55;0.40;;;26.20;52.70;;;;;;10983555;32;20160;-71
2022/08/12 22:31:07;;;;;;;0.37;0.37;;;26.10;52.80;;;;;;10983356;32;20443;-71
2022/08/12 22:33:53;;;;;;;0.85;0.52;;;26.10;52.70;;;;;;10983420;32;20027;-71
2022/08/12 22:39:55;;;;;;;0.70;0.50;;;26.00;52.80;;;;;;10983044;32;20019;-71
2022/08/12 22:52:21;;;;;;;1.15;0.82;;;25.90;52.90;;;;;;10981814;32;20026;-71
2022/08/12 22:58:23;;;;;;;1.10;0.50;;;25.90;52.90;;;;;;10982354;32;20019;-71
2022/08/12 23:04:25;;;;;;;1.85;0.82;;;25.80;53.10;;;;;;10982121;32;20346;-71
2022/08/12 23:10:27;;;;;;;0.22;0.20;;;25.80;52.90;;;;;;10981818;32;20049;-71
2022/08/12 23:16:32;;;;;;;0.30;0.30;;;25.80;52.90;;;;;;10977295;32;20023;-71
2022/08/12 23:22:34;;;;;;;1.20;0.70;;;25.70;53.00;;;;;;10981401;32;20022;-72
2022/08/12 23:34:58;;;;;;;0.60;0.60;;;25.60;53.00;;;;;;10981066;32;20046;-71
2022/08/12 23:41:04;;;;;;;0.90;0.68;;;25.40;53.30;;;;;;10967447;32;20058;-71
2022/08/12 23:47:10;;;;;;;0.80;0.57;;;25.40;53.30;;;;;;10980531;32;20429;-71
2022/08/12 23:53:11;;;;;;;0.50;0.50;;;25.30;53.50;;;;;;10980393;32;20014;-71
2022/08/12 23:59:14;;;;;;;0.82;0.55;;;25.30;53.60;;;;;;10980340;32;20399;-71
